Terminal Aerodrome Forecast
Issued by NWS Charleston, WV

Home | Current Version | Previous Version | Text Only | Print | Product List | Glossary On
Versions: 1 2 3 4 5 6 7 8 9 10 11 12 13 14 15 16 17 18 19 20
000
FTUS41 KRLX 241142
TAFPKB
TAF
KPKB 241142Z 2412/2512 00000KT P6SM SCT250
     FM241500 14005KT P6SM FEW050
     FM242000 19006KT P6SM SCT045
     FM250000 00000KT P6SM SCT100
     FM250600 00000KT P6SM BKN250=

USA.gov is the U.S. government's official web portal to all federal, state and local government web resources and services.